Time;durP1;ratioP1;P1;durP2;ratioP2;P2;SDS_P1;SDS_P2;PMS_P1;PMS_P2;Temp;Humidity;BMP_temperature;BMP_pressure;BME280_temperature;BME280_humidity;BME280_pressure;Samples;Min_cycle;Max_cycle;Signal;HPM_P1;HPM_P2
2021/05/13 00:01:49;;;;;;;7.40;6.80;;;13.40;99.90;;;;;;4919033;29;20174;-72
2021/05/13 00:04:15;;;;;;;10.33;7.10;;;13.30;99.90;;;;;;4918932;29;20258;-70
2021/05/13 00:06:40;;;;;;;11.30;8.20;;;13.10;99.90;;;;;;4919234;29;20178;-72
2021/05/13 00:09:09;;;;;;;8.40;7.33;;;13.00;99.90;;;;;;4920474;29;20183;-71
2021/05/13 00:11:37;;;;;;;8.10;7.40;;;13.00;99.90;;;;;;4919750;29;20724;-71
2021/05/13 00:14:05;;;;;;;9.90;8.00;;;13.00;99.90;;;;;;4918911;29;20474;-71
2021/05/13 00:16:33;;;;;;;9.13;8.33;;;12.90;99.90;;;;;;4918928;29;20558;-71
2021/05/13 00:19:01;;;;;;;10.30;9.30;;;12.80;99.90;;;;;;4920164;29;20730;-71
2021/05/13 00:21:27;;;;;;;10.23;8.63;;;12.70;99.90;;;;;;4918853;29;20419;-70
2021/05/13 00:23:53;;;;;;;8.50;7.70;;;12.60;99.90;;;;;;4918442;29;20439;-70
2021/05/13 00:26:34;;;;;;;9.80;8.37;;;12.40;99.90;;;;;;4918882;29;20586;-70
2021/05/13 00:29:00;;;;;;;10.30;8.07;;;12.40;99.90;;;;;;4918955;29;20179;-71
2021/05/13 00:31:25;;;;;;;10.00;8.90;;;12.40;99.90;;;;;;4920119;29;20461;-72
2021/05/13 00:33:51;;;;;;;9.13;8.17;;;12.40;99.90;;;;;;4918673;29;20178;-71
2021/05/13 00:36:16;;;;;;;9.97;8.17;;;12.40;99.90;;;;;;4918483;29;20223;-72
2021/05/13 00:38:42;;;;;;;9.67;8.30;;;12.40;99.90;;;;;;4918571;29;20237;-72
2021/05/13 00:41:07;;;;;;;11.23;9.03;;;12.20;99.90;;;;;;4919826;29;20552;-72
2021/05/13 00:43:33;;;;;;;12.30;9.33;;;12.10;99.90;;;;;;4918494;29;20223;-72
2021/05/13 00:45:58;;;;;;;10.50;9.50;;;12.00;99.90;;;;;;4918405;29;20247;-70
2021/05/13 00:48:31;;;;;;;11.30;10.17;;;12.00;99.90;;;;;;4918150;29;20246;-70
2021/05/13 00:50:57;;;;;;;9.80;8.47;;;12.00;99.90;;;;;;4919426;29;20519;-70
2021/05/13 00:53:25;;;;;;;10.77;9.60;;;12.10;99.90;;;;;;4937314;29;20505;-69
2021/05/13 00:55:51;;;;;;;9.27;8.47;;;12.10;99.90;;;;;;4936835;29;20199;-71
2021/05/13 00:58:17;;;;;;;11.73;9.83;;;12.20;99.90;;;;;;4937186;29;20473;-71
2021/05/13 01:00:50;;;;;;;10.73;9.63;;;12.10;99.90;;;;;;4937411;29;20413;-71
2021/05/13 01:03:16;;;;;;;10.20;9.20;;;12.00;99.90;;;;;;4935177;29;20170;-70
2021/05/13 01:05:41;;;;;;;11.27;10.17;;;11.80;99.90;;;;;;4936865;28;20910;-71
2021/05/13 01:08:07;;;;;;;11.27;10.10;;;11.70;99.90;;;;;;4951662;29;20426;-71
2021/05/13 01:10:34;;;;;;;10.93;9.80;;;11.70;99.90;;;;;;4936455;29;20190;-71
2021/05/13 01:13:05;;;;;;;11.60;10.50;;;11.60;99.90;;;;;;4928568;29;20423;-71
2021/05/13 01:15:45;;;;;;;10.70;9.70;;;11.60;99.90;;;;;;4917842;29;20465;-71
2021/05/13 01:18:19;;;;;;;10.13;9.17;;;11.50;99.90;;;;;;4917897;29;20463;-70
2021/05/13 01:20:46;;;;;;;11.13;9.80;;;11.40;99.90;;;;;;4917801;29;20411;-71
2021/05/13 01:23:13;;;;;;;10.50;9.40;;;11.40;99.90;;;;;;4918831;29;20419;-71
2021/05/13 01:25:57;;;;;;;15.90;9.50;;;11.50;99.90;;;;;;4917733;29;20851;-71
2021/05/13 01:28:26;;;;;;;10.00;8.90;;;11.60;99.90;;;;;;4917872;29;20458;-72
2021/05/13 01:30:53;;;;;;;11.10;9.37;;;11.60;99.90;;;;;;4918929;29;20474;-71
2021/05/13 01:33:24;;;;;;;11.47;9.50;;;11.50;99.90;;;;;;4936461;29;20452;-71
2021/05/13 01:35:52;;;;;;;10.20;9.27;;;11.40;99.90;;;;;;4936391;28;20457;-72
2021/05/13 01:38:19;;;;;;;9.87;8.87;;;11.40;99.90;;;;;;4936634;29;20540;-71
2021/05/13 01:41:04;;;;;;;10.33;9.00;;;11.40;99.90;;;;;;4936385;29;20461;-71
2021/05/13 01:43:31;;;;;;;11.00;9.97;;;11.40;99.90;;;;;;4917444;29;20939;-71
2021/05/13 01:45:59;;;;;;;12.73;10.50;;;11.50;99.90;;;;;;4917467;29;20430;-71
2021/05/13 01:48:25;;;;;;;10.70;9.70;;;11.50;99.90;;;;;;4917555;29;20780;-71
2021/05/13 01:50:51;;;;;;;12.90;10.10;;;11.50;99.90;;;;;;4917704;29;20419;-71
2021/05/13 01:53:16;;;;;;;13.67;10.00;;;11.50;99.90;;;;;;4917879;28;20250;-71
2021/05/13 01:55:42;;;;;;;10.80;9.63;;;11.60;99.90;;;;;;4917188;29;20441;-72
2021/05/13 01:58:08;;;;;;;11.07;9.40;;;11.50;99.90;;;;;;4917276;29;20249;-71
2021/05/13 02:00:35;;;;;;;12.27;10.87;;;11.40;99.90;;;;;;4917436;29;20423;-71
2021/05/13 02:03:00;;;;;;;10.53;9.57;;;11.30;99.90;;;;;;4918371;29;20182;-71
2021/05/13 02:05:26;;;;;;;11.50;9.60;;;11.20;99.90;;;;;;4918978;29;20518;-71
2021/05/13 02:07:52;;;;;;;12.17;10.90;;;11.10;99.90;;;;;;4919092;29;20195;-71
2021/05/13 02:10:18;;;;;;;11.07;10.00;;;11.00;99.90;;;;;;4921691;29;20190;-71
2021/05/13 02:12:45;;;;;;;12.37;11.07;;;10.90;99.90;;;;;;4917138;29;20411;-71
2021/05/13 02:15:13;;;;;;;12.40;11.13;;;10.80;99.90;;;;;;4918046;29;20944;-71
2021/05/13 02:17:40;;;;;;;12.73;11.50;;;10.80;99.90;;;;;;4917200;29;20392;-71
2021/05/13 02:20:08;;;;;;;11.30;10.20;;;10.80;99.90;;;;;;4917213;29;20422;-71
2021/05/13 02:22:34;;;;;;;14.73;11.20;;;10.90;99.90;;;;;;4916809;29;20414;-71
2021/05/13 02:24:59;;;;;;;13.73;10.70;;;10.90;99.90;;;;;;4917882;29;20443;-71
2021/05/13 02:27:25;;;;;;;13.90;10.93;;;11.00;99.90;;;;;;4917083;29;20163;-72
2021/05/13 02:29:50;;;;;;;12.33;11.23;;;11.10;99.90;;;;;;4916146;29;20170;-71
2021/05/13 02:32:16;;;;;;;13.73;10.90;;;11.10;99.90;;;;;;4917273;29;20218;-71
2021/05/13 02:34:42;;;;;;;13.87;10.50;;;11.10;99.90;;;;;;4917770;29;20202;-72
2021/05/13 02:37:07;;;;;;;13.93;11.20;;;11.10;99.90;;;;;;4916412;29;20199;-71
2021/05/13 02:39:33;;;;;;;11.37;10.40;;;11.00;99.90;;;;;;4916731;29;20210;-71
2021/05/13 02:41:59;;;;;;;13.57;11.50;;;10.90;99.90;;;;;;4916841;29;20227;-71
2021/05/13 02:44:24;;;;;;;12.80;10.67;;;10.90;99.90;;;;;;4916571;29;20463;-72
2021/05/13 02:46:50;;;;;;;12.43;11.23;;;10.90;99.90;;;;;;4919538;29;21739;-72
2021/05/13 02:49:16;;;;;;;12.13;10.97;;;10.90;99.90;;;;;;4935690;29;20238;-71
2021/05/13 02:51:41;;;;;;;15.80;11.23;;;10.90;99.90;;;;;;4937689;29;20177;-71
2021/05/13 02:54:07;;;;;;;13.10;11.27;;;10.80;99.90;;;;;;4939323;29;20185;-71
2021/05/13 02:56:32;;;;;;;12.20;11.00;;;10.90;99.90;;;;;;4928473;29;20190;-71
2021/05/13 02:58:58;;;;;;;11.70;10.57;;;10.90;99.90;;;;;;4916666;29;20210;-71
2021/05/13 03:01:29;;;;;;;12.40;11.30;;;10.90;99.90;;;;;;4916710;29;20171;-71
2021/05/13 03:03:57;;;;;;;15.20;11.50;;;10.90;99.90;;;;;;4916443;29;20166;-71
2021/05/13 03:06:25;;;;;;;13.07;11.67;;;11.00;99.90;;;;;;4918245;29;20431;-71
2021/05/13 03:08:57;;;;;;;13.30;11.93;;;11.10;99.90;;;;;;4917848;29;20921;-71
2021/05/13 03:11:25;;;;;;;12.77;11.50;;;10.90;99.90;;;;;;4917777;29;20751;-71
2021/05/13 03:13:54;;;;;;;15.77;12.20;;;10.80;99.90;;;;;;4918060;29;20415;-71
2021/05/13 03:16:20;;;;;;;12.80;11.60;;;10.70;99.90;;;;;;4916874;29;20460;-71
2021/05/13 03:18:50;;;;;;;12.60;11.37;;;10.60;99.90;;;;;;4920401;29;20498;-71
2021/05/13 03:21:24;;;;;;;13.93;12.53;;;10.70;99.90;;;;;;4920055;29;20425;-71
2021/05/13 03:29:14;;;;;;;13.00;11.70;;;10.80;99.90;;;;;;4899670;29;20443;-71
2021/05/13 03:31:39;;;;;;;15.10;11.60;;;10.70;99.90;;;;;;4898411;29;20715;-71
2021/05/13 03:34:05;;;;;;;13.23;11.83;;;10.70;99.90;;;;;;4898309;29;20404;-71
2021/05/13 03:36:31;;;;;;;15.10;12.97;;;10.50;99.90;;;;;;4898552;29;20539;-71
2021/05/13 03:38:58;;;;;;;14.60;13.03;;;10.50;99.90;;;;;;4899588;29;20246;-71
2021/05/13 03:41:24;;;;;;;15.87;12.07;;;10.40;99.90;;;;;;4898691;29;20515;-71
2021/05/13 03:43:49;;;;;;;14.03;12.20;;;10.40;99.90;;;;;;4900013;29;20498;-71
2021/05/13 03:46:15;;;;;;;16.00;12.70;;;10.40;99.90;;;;;;4899588;29;20223;-71
2021/05/13 03:48:40;;;;;;;13.17;11.87;;;10.50;99.90;;;;;;4900714;29;20191;-71
2021/05/13 03:51:06;;;;;;;16.70;12.80;;;10.50;99.90;;;;;;4899978;29;20210;-71
2021/05/13 03:53:32;;;;;;;13.03;11.73;;;10.50;99.90;;;;;;4900092;29;20214;-71
2021/05/13 03:55:57;;;;;;;13.70;12.10;;;10.60;99.90;;;;;;4901346;29;20229;-71
2021/05/13 03:58:28;;;;;;;14.57;13.07;;;10.60;99.90;;;;;;4900540;29;20536;-71
2021/05/13 04:03:19;;;;;;;14.50;11.97;;;10.70;99.90;;;;;;4918739;29;20438;-71
2021/05/13 04:05:45;;;;;;;14.40;13.02;;;10.80;99.90;;;;;;4920397;29;20967;-71
2021/05/13 04:08:12;;;;;;;14.13;12.30;;;10.80;99.90;;;;;;4921107;29;20183;-71
2021/05/13 04:10:38;;;;;;;14.17;11.77;;;10.90;99.90;;;;;;4924800;29;20186;-70
2021/05/13 04:13:08;;;;;;;12.90;11.60;;;10.80;99.90;;;;;;4941315;29;20430;-70
2021/05/13 04:15:33;;;;;;;13.83;12.43;;;10.80;99.90;;;;;;4940853;29;20816;-71
2021/05/13 04:17:59;;;;;;;11.37;10.33;;;10.80;99.90;;;;;;4939111;29;20469;-71
2021/05/13 04:20:25;;;;;;;13.33;11.07;;;10.90;99.90;;;;;;4940792;29;20170;-71
2021/05/13 04:22:50;;;;;;;13.67;12.27;;;10.90;99.90;;;;;;4924999;29;20183;-71
2021/05/13 04:25:16;;;;;;;12.90;10.87;;;10.90;99.90;;;;;;4919228;29;20622;-71
2021/05/13 04:27:41;;;;;;;14.33;12.90;;;10.90;99.90;;;;;;4918936;29;20170;-71
2021/05/13 04:30:08;;;;;;;13.50;12.10;;;10.90;99.90;;;;;;4917896;29;20175;-71
2021/05/13 04:32:33;;;;;;;13.50;12.13;;;10.90;99.90;;;;;;4927332;29;20209;-71
2021/05/13 04:34:59;;;;;;;13.27;11.97;;;11.00;99.90;;;;;;4937588;29;20441;-70
2021/05/13 04:37:24;;;;;;;13.00;11.53;;;11.00;99.90;;;;;;4939132;28;20190;-70
2021/05/13 04:39:50;;;;;;;12.30;11.10;;;11.00;99.90;;;;;;4937533;29;20741;-71
2021/05/13 04:42:15;;;;;;;13.77;12.47;;;10.90;99.90;;;;;;4935411;29;20261;-71
2021/05/13 04:44:41;;;;;;;12.57;11.33;;;10.90;99.90;;;;;;4937022;29;20201;-71
2021/05/13 04:50:05;;;;;;;12.87;11.57;;;11.00;99.90;;;;;;4911210;29;20205;-71
2021/05/13 04:52:31;;;;;;;13.33;11.47;;;11.00;99.90;;;;;;4938614;29;20488;-71
2021/05/13 04:54:58;;;;;;;14.50;12.20;;;11.00;99.90;;;;;;4938316;29;20449;-70
2021/05/13 04:57:24;;;;;;;17.57;12.83;;;11.00;99.90;;;;;;4939263;29;20167;-70
2021/05/13 04:59:50;;;;;;;12.77;11.47;;;11.10;99.90;;;;;;4953871;29;20990;-70
2021/05/13 05:02:16;;;;;;;14.10;10.95;;;11.00;99.90;;;;;;4940178;29;20444;-70
2021/05/13 05:04:42;;;;;;;15.00;12.13;;;11.10;99.90;;;;;;4929098;29;20258;-70
2021/05/13 05:07:08;;;;;;;12.93;11.47;;;11.00;99.90;;;;;;4920801;29;20617;-70
2021/05/13 05:09:34;;;;;;;13.23;11.93;;;11.00;99.90;;;;;;4918448;29;20426;-71
2021/05/13 05:12:00;;;;;;;13.30;11.90;;;11.00;99.90;;;;;;4918173;29;20175;-72
2021/05/13 05:14:26;;;;;;;12.33;11.23;;;11.00;99.90;;;;;;4918864;29;20442;-69
2021/05/13 05:16:51;;;;;;;12.87;11.57;;;11.00;99.90;;;;;;4930230;29;20257;-70
2021/05/13 05:19:17;;;;;;;13.37;11.40;;;10.90;99.90;;;;;;4937238;29;20214;-69
2021/05/13 05:21:42;;;;;;;11.70;10.60;;;10.90;99.90;;;;;;4936870;29;20181;-70
2021/05/13 05:24:08;;;;;;;11.40;10.23;;;11.00;99.90;;;;;;4930703;29;20190;-70
2021/05/13 05:26:34;;;;;;;12.23;10.70;;;11.00;99.90;;;;;;4929502;29;20289;-70
2021/05/13 05:29:00;;;;;;;12.97;11.63;;;11.10;99.90;;;;;;4928000;29;20936;-70
2021/05/13 05:31:26;;;;;;;13.03;11.73;;;11.20;99.90;;;;;;4917935;29;20637;-71
2021/05/13 05:33:51;;;;;;;12.90;11.57;;;11.20;99.90;;;;;;4917059;29;20423;-70
2021/05/13 05:36:17;;;;;;;12.33;11.03;;;11.30;99.90;;;;;;4924808;29;20219;-71
2021/05/13 05:38:43;;;;;;;12.43;11.23;;;11.30;99.90;;;;;;4931785;29;20214;-71
2021/05/13 05:41:08;;;;;;;11.93;10.83;;;11.40;99.90;;;;;;4922004;29;20718;-70
2021/05/13 05:43:34;;;;;;;12.50;11.30;;;11.40;99.90;;;;;;4931492;29;20541;-70
2021/05/13 05:45:59;;;;;;;11.57;10.37;;;11.40;99.90;;;;;;4929869;29;20638;-69
2021/05/13 05:48:25;;;;;;;12.30;11.20;;;11.40;99.90;;;;;;4932910;29;20537;-70
2021/05/13 05:50:51;;;;;;;11.97;10.87;;;11.50;99.90;;;;;;4925454;29;20190;-70
2021/05/13 05:53:16;;;;;;;12.70;11.60;;;11.50;99.90;;;;;;4929744;29;20225;-70
2021/05/13 05:55:42;;;;;;;11.87;10.77;;;11.50;99.90;;;;;;4933829;29;20210;-70
2021/05/13 05:58:07;;;;;;;12.07;10.97;;;11.60;99.90;;;;;;4934301;29;20264;-70
2021/05/13 06:00:33;;;;;;;12.63;11.43;;;11.60;99.90;;;;;;4925817;29;20262;-70
2021/05/13 06:02:59;;;;;;;11.67;10.50;;;11.60;99.90;;;;;;4928403;29;20249;-72
2021/05/13 06:05:24;;;;;;;12.40;11.23;;;11.70;99.90;;;;;;4922927;29;20586;-71
2021/05/13 06:07:51;;;;;;;12.80;11.63;;;11.70;99.90;;;;;;4934157;29;20425;-71
2021/05/13 06:10:17;;;;;;;12.40;11.23;;;11.80;99.90;;;;;;4934471;29;20261;-71
2021/05/13 06:12:43;;;;;;;11.87;10.50;;;11.80;99.90;;;;;;4934159;29;20509;-71
2021/05/13 06:15:11;;;;;;;13.07;11.77;;;11.90;99.90;;;;;;4925568;29;20429;-71
2021/05/13 06:17:37;;;;;;;11.33;10.23;;;12.00;99.90;;;;;;4934590;29;20186;-72
2021/05/13 06:20:05;;;;;;;11.70;10.60;;;12.00;99.90;;;;;;4934348;29;20422;-70
2021/05/13 06:22:31;;;;;;;11.60;10.40;;;12.10;99.90;;;;;;4929637;29;20179;-70
2021/05/13 06:24:57;;;;;;;11.30;10.13;;;12.20;99.90;;;;;;4932793;29;20476;-70
2021/05/13 06:27:23;;;;;;;12.03;10.93;;;12.30;99.90;;;;;;4932434;29;20214;-71
2021/05/13 06:29:49;;;;;;;11.20;10.20;;;12.30;99.90;;;;;;4932354;29;20467;-70
2021/05/13 06:32:15;;;;;;;13.20;10.57;;;12.50;99.90;;;;;;4931897;29;20186;-70
2021/05/13 06:34:41;;;;;;;10.93;9.93;;;12.50;99.90;;;;;;4926176;29;20505;-71
2021/05/13 06:37:07;;;;;;;12.00;10.80;;;12.60;99.90;;;;;;4931533;29;20543;-70
2021/05/13 06:39:33;;;;;;;11.10;10.17;;;12.60;99.90;;;;;;4931216;29;20205;-72
2021/05/13 06:42:03;;;;;;;11.10;10.03;;;12.80;99.90;;;;;;4931648;29;20190;-70
2021/05/13 06:44:28;;;;;;;10.90;9.90;;;12.80;99.90;;;;;;4923217;29;20877;-70
2021/05/13 06:46:55;;;;;;;12.03;10.73;;;12.90;99.90;;;;;;4930549;29;20474;-71
2021/05/13 06:49:20;;;;;;;11.20;10.20;;;13.00;99.90;;;;;;4925591;29;20190;-70
2021/05/13 06:51:46;;;;;;;12.43;10.07;;;13.10;99.90;;;;;;4923623;29;20449;-70
2021/05/13 06:54:13;;;;;;;12.03;9.93;;;13.20;99.90;;;;;;4929685;29;20193;-70
2021/05/13 06:56:40;;;;;;;9.90;9.10;;;13.30;99.90;;;;;;4935775;29;20200;-69
2021/05/13 06:59:07;;;;;;;9.87;9.00;;;13.40;99.90;;;;;;4938551;29;20460;-71
2021/05/13 07:01:34;;;;;;;9.93;9.00;;;13.50;99.90;;;;;;4937478;29;20422;-70
2021/05/13 07:04:00;;;;;;;9.70;8.80;;;13.60;99.90;;;;;;4934350;29;20477;-71
2021/05/13 07:06:25;;;;;;;9.40;8.57;;;13.70;99.90;;;;;;4920839;29;20435;-72
2021/05/13 07:08:51;;;;;;;9.57;8.57;;;13.80;99.90;;;;;;4934037;29;20727;-71
2021/05/13 07:11:16;;;;;;;8.57;7.77;;;13.90;99.90;;;;;;4934703;29;20186;-72
2021/05/13 07:13:42;;;;;;;8.07;7.37;;;14.00;99.90;;;;;;4933974;29;20186;-71
2021/05/13 07:16:07;;;;;;;8.27;7.57;;;14.10;99.90;;;;;;4926361;29;20230;-70
2021/05/13 07:18:33;;;;;;;6.60;5.97;;;14.20;99.90;;;;;;4932454;29;20229;-70
2021/05/13 07:21:01;;;;;;;6.90;6.30;;;14.30;99.90;;;;;;4934462;29;20186;-70
2021/05/13 07:23:28;;;;;;;5.73;5.20;;;14.30;99.90;;;;;;4925568;29;20672;-71
2021/05/13 07:25:55;;;;;;;6.70;5.80;;;14.50;99.90;;;;;;4928273;29;20548;-71
2021/05/13 07:28:21;;;;;;;5.57;5.17;;;14.60;99.90;;;;;;4932244;29;20481;-71
2021/05/13 07:30:47;;;;;;;5.33;4.83;;;14.70;99.90;;;;;;4933786;29;20971;-70
2021/05/13 07:33:12;;;;;;;7.43;5.40;;;14.70;99.90;;;;;;4931251;29;20462;-71
2021/05/13 07:35:38;;;;;;;5.20;4.77;;;14.80;99.90;;;;;;4932034;29;20212;-70
2021/05/13 07:38:04;;;;;;;6.47;4.77;;;14.90;99.90;;;;;;4933388;29;20218;-71
2021/05/13 07:40:29;;;;;;;5.03;4.40;;;15.00;99.90;;;;;;4922801;29;20183;-70
2021/05/13 07:42:55;;;;;;;4.70;4.40;;;15.10;99.90;;;;;;4915902;29;20187;-70
2021/05/13 07:45:22;;;;;;;5.63;4.60;;;15.20;99.90;;;;;;4937296;28;20214;-70
2021/05/13 07:47:48;;;;;;;6.53;5.20;;;15.30;99.60;;;;;;4938923;29;20418;-70
2021/05/13 07:50:16;;;;;;;6.27;5.67;;;15.40;99.40;;;;;;4945490;29;20510;-71
2021/05/13 07:52:43;;;;;;;5.30;4.80;;;15.50;98.90;;;;;;4948113;29;21036;-71
2021/05/13 07:55:09;;;;;;;6.43;5.50;;;15.60;98.50;;;;;;4952648;29;20454;-71
2021/05/13 07:57:35;;;;;;;5.10;4.80;;;15.60;97.70;;;;;;4939432;29;20505;-70
2021/05/13 08:00:03;;;;;;;6.50;4.97;;;15.60;97.60;;;;;;4920398;29;20506;-71
2021/05/13 08:02:29;;;;;;;4.80;4.30;;;15.70;97.10;;;;;;4919079;29;20691;-71
2021/05/13 08:04:54;;;;;;;4.93;4.50;;;15.90;97.10;;;;;;4918207;29;20435;-72
2021/05/13 08:07:22;;;;;;;5.20;4.70;;;16.00;96.80;;;;;;4919069;29;20185;-72
2021/05/13 08:09:48;;;;;;;6.03;5.43;;;16.10;96.40;;;;;;4920294;29;20206;-72
2021/05/13 08:12:14;;;;;;;5.80;5.30;;;16.20;96.00;;;;;;4919221;29;20802;-71
2021/05/13 08:14:40;;;;;;;6.27;5.40;;;16.30;95.60;;;;;;4918671;29;20542;-71
2021/05/13 08:17:05;;;;;;;5.20;4.80;;;16.30;95.30;;;;;;4919200;29;20466;-71
2021/05/13 08:19:31;;;;;;;5.00;4.53;;;16.40;95.20;;;;;;4920095;29;20560;-71
2021/05/13 08:21:57;;;;;;;5.30;4.80;;;16.50;95.30;;;;;;4919022;29;20625;-73
2021/05/13 08:24:23;;;;;;;4.90;4.50;;;16.60;95.00;;;;;;4932822;29;20247;-72
2021/05/13 08:26:49;;;;;;;6.13;5.40;;;16.80;95.20;;;;;;4919096;29;20175;-72
2021/05/13 08:29:15;;;;;;;6.77;5.70;;;16.80;94.80;;;;;;4919419;29;20190;-72
2021/05/13 08:31:40;;;;;;;5.07;4.67;;;16.80;94.70;;;;;;4919870;29;20431;-70
2021/05/13 08:34:06;;;;;;;5.70;5.20;;;16.90;94.70;;;;;;4918668;29;20198;-71
2021/05/13 08:36:31;;;;;;;4.83;4.40;;;17.00;94.30;;;;;;4933280;29;20181;-71
2021/05/13 08:38:57;;;;;;;6.20;5.60;;;17.10;94.20;;;;;;4938121;29;20712;-72
2021/05/13 08:41:22;;;;;;;5.83;5.13;;;17.20;93.90;;;;;;4929834;29;20187;-73
2021/05/13 08:43:52;;;;;;;6.53;5.90;;;17.30;93.90;;;;;;4918832;29;20189;-71
2021/05/13 08:46:19;;;;;;;5.63;4.97;;;17.30;94.00;;;;;;4918684;29;20286;-72
2021/05/13 08:48:46;;;;;;;5.87;5.27;;;17.30;94.20;;;;;;4918422;29;20431;-72
2021/05/13 08:51:12;;;;;;;5.80;5.30;;;17.20;94.20;;;;;;4919866;29;20517;-71
2021/05/13 08:53:52;;;;;;;6.70;5.30;;;17.20;93.90;;;;;;4917975;29;20537;-71
2021/05/13 08:56:19;;;;;;;5.27;4.60;;;17.00;93.60;;;;;;4917931;29;20446;-71
2021/05/13 08:58:45;;;;;;;4.80;4.40;;;16.90;93.60;;;;;;4918189;29;20506;-70
2021/05/13 09:01:24;;;;;;;5.63;5.20;;;16.80;93.70;;;;;;4918576;29;20416;-72
2021/05/13 09:03:51;;;;;;;5.13;4.63;;;16.70;93.20;;;;;;4919012;29;20427;-72
2021/05/13 09:06:29;;;;;;;5.90;4.60;;;16.80;93.50;;;;;;4918079;29;20449;-72
2021/05/13 09:09:20;;;;;;;5.33;4.40;;;16.90;93.50;;;;;;4918571;29;20462;-73
2021/05/13 09:11:57;;;;;;;4.30;3.90;;;17.00;93.00;;;;;;4917840;29;20430;-72
2021/05/13 09:14:28;;;;;;;3.87;3.57;;;17.10;92.80;;;;;;4918854;29;20595;-72
2021/05/13 09:16:58;;;;;;;5.07;3.70;;;17.20;92.00;;;;;;4917630;29;20921;-72
2021/05/13 09:19:27;;;;;;;4.23;3.37;;;17.30;91.30;;;;;;4917914;29;20469;-72
2021/05/13 09:22:04;;;;;;;4.50;3.60;;;17.50;91.30;;;;;;4917583;29;20430;-72
2021/05/13 09:24:59;;;;;;;3.80;3.50;;;17.60;91.10;;;;;;4918366;29;20534;-71
2021/05/13 09:27:36;;;;;;;4.93;3.50;;;17.70;91.20;;;;;;4917661;29;20411;-72
2021/05/13 09:30:12;;;;;;;3.80;3.37;;;17.80;90.90;;;;;;4917499;29;20502;-72
2021/05/13 09:32:39;;;;;;;5.03;3.70;;;17.80;90.30;;;;;;4918442;29;20533;-72
2021/05/13 09:35:35;;;;;;;3.30;2.83;;;18.00;90.30;;;;;;4920162;29;20430;-71
2021/05/13 09:38:05;;;;;;;4.00;3.60;;;18.00;90.20;;;;;;4859412;29;20462;-70
2021/05/13 09:40:52;;;;;;;5.37;3.53;;;18.10;89.60;;;;;;4859248;29;20579;-71
2021/05/13 09:43:19;;;;;;;3.30;3.03;;;18.10;88.40;;;;;;4847148;29;20427;-74
2021/05/13 09:45:50;;;;;;;4.70;3.30;;;18.20;89.40;;;;;;4840515;29;20648;-71
2021/05/13 09:48:40;;;;;;;5.33;3.33;;;18.30;89.20;;;;;;4840477;29;20754;-71
2021/05/13 09:51:29;;;;;;;4.30;3.20;;;18.40;88.90;;;;;;4840511;29;20474;-72
2021/05/13 09:54:15;;;;;;;2.73;2.30;;;18.60;88.60;;;;;;4841641;29;20434;-71
2021/05/13 09:56:43;;;;;;;5.23;3.43;;;18.70;87.50;;;;;;4840570;29;20422;-72
2021/05/13 09:59:38;;;;;;;3.60;3.30;;;18.80;86.80;;;;;;4840695;29;20809;-72
2021/05/13 10:02:07;;;;;;;5.07;3.10;;;18.80;85.60;;;;;;4804207;29;20431;-72
2021/05/13 10:04:33;;;;;;;6.57;3.80;;;18.80;85.00;;;;;;4804439;29;20436;-72
2021/05/13 10:06:59;;;;;;;5.70;3.10;;;18.70;84.60;;;;;;4804082;29;20424;-72
2021/05/13 10:09:24;;;;;;;3.07;2.87;;;18.80;84.80;;;;;;4804040;29;20297;-72
2021/05/13 10:11:58;;;;;;;3.30;3.00;;;18.90;84.60;;;;;;4803988;29;20946;-72
2021/05/13 10:14:27;;;;;;;3.17;2.87;;;18.90;83.90;;;;;;4851586;29;20219;-71
2021/05/13 10:16:54;;;;;;;5.90;3.10;;;19.00;83.70;;;;;;4895935;29;20444;-72
2021/05/13 10:19:42;;;;;;;3.50;2.90;;;18.90;81.40;;;;;;4895791;29;20463;-71
2021/05/13 10:22:12;;;;;;;3.67;3.33;;;19.00;81.80;;;;;;4885887;29;20446;-72
2021/05/13 10:24:38;;;;;;;4.53;2.97;;;19.10;81.20;;;;;;4896636;29;20447;-71
2021/05/13 10:27:30;;;;;;;6.47;2.77;;;19.10;80.20;;;;;;4896524;29;20909;-71
2021/05/13 10:30:00;;;;;;;4.60;2.70;;;19.10;79.60;;;;;;4897135;29;20191;-71
2021/05/13 10:32:31;;;;;;;2.67;2.47;;;19.20;80.20;;;;;;4899455;29;20921;-71
2021/05/13 10:34:58;;;;;;;3.67;2.30;;;19.00;78.50;;;;;;4901166;29;20450;-71
2021/05/13 10:37:32;;;;;;;2.77;2.43;;;18.80;78.70;;;;;;4900602;29;20495;-71
2021/05/13 10:40:22;;;;;;;2.50;2.30;;;18.70;78.90;;;;;;4920467;29;20533;-72
2021/05/13 10:43:08;;;;;;;2.83;2.50;;;18.80;79.20;;;;;;4920845;29;20399;-72
2021/05/13 10:45:39;;;;;;;2.87;2.60;;;18.70;77.80;;;;;;4920634;29;20796;-72
2021/05/13 10:48:27;;;;;;;4.50;3.30;;;18.60;78.30;;;;;;4919352;29;20419;-70
2021/05/13 10:50:52;;;;;;;4.20;2.97;;;18.60;80.00;;;;;;4920167;29;20155;-70
2021/05/13 10:53:46;;;;;;;5.70;2.50;;;18.70;79.00;;;;;;4920314;29;20429;-71
2021/05/13 10:56:31;;;;;;;4.23;2.70;;;18.80;78.40;;;;;;4921315;29;20221;-71
2021/05/13 10:59:02;;;;;;;2.80;2.60;;;19.00;78.00;;;;;;4919591;29;20482;-70
2021/05/13 11:01:47;;;;;;;3.60;2.33;;;19.10;78.60;;;;;;4920538;29;20932;-70
2021/05/13 11:06:57;;;;;;;3.60;2.70;;;19.50;76.90;;;;;;4922259;29;21921;-71
2021/05/13 11:09:41;;;;;;;3.43;2.33;;;19.60;75.80;;;;;;4938848;29;20424;-71
2021/05/13 11:12:24;;;;;;;2.43;2.23;;;19.60;75.50;;;;;;4938819;29;20453;-70
2021/05/13 11:14:57;;;;;;;3.30;2.50;;;19.60;75.10;;;;;;4938619;29;20422;-70
2021/05/13 11:18:04;;;;;;;3.20;2.60;;;19.30;73.70;;;;;;4937327;29;20398;-70
2021/05/13 11:20:34;;;;;;;3.73;2.57;;;19.10;73.90;;;;;;4938116;29;20923;-70
2021/05/13 11:23:07;;;;;;;4.07;2.30;;;19.10;75.30;;;;;;4938549;28;20406;-71
2021/05/13 11:25:46;;;;;;;2.73;2.40;;;19.00;75.00;;;;;;4938442;29;20440;-70
2021/05/13 11:28:41;;;;;;;3.73;2.60;;;19.10;74.90;;;;;;4919777;29;20423;-71
2021/05/13 11:31:06;;;;;;;3.40;2.40;;;19.10;74.80;;;;;;4920133;29;20422;-71
2021/05/13 11:33:48;;;;;;;2.30;2.10;;;19.00;73.80;;;;;;4919635;29;20411;-71
2021/05/13 11:36:37;;;;;;;3.33;3.03;;;19.00;74.50;;;;;;4931404;29;20220;-71
2021/05/13 11:39:12;;;;;;;2.53;2.33;;;19.00;73.50;;;;;;4919964;29;20857;-71
2021/05/13 11:41:42;;;;;;;3.93;2.60;;;19.00;74.40;;;;;;4921764;29;20788;-71
2021/05/13 11:44:08;;;;;;;2.30;2.10;;;19.00;74.40;;;;;;4922227;29;20400;-71
2021/05/13 11:46:37;;;;;;;2.50;2.10;;;19.00;74.80;;;;;;4922771;29;20419;-71
2021/05/13 11:49:03;;;;;;;3.17;2.50;;;18.90;75.00;;;;;;4920766;29;20529;-70
2021/05/13 11:51:31;;;;;;;2.20;2.00;;;18.80;73.10;;;;;;4919395;29;20921;-71
2021/05/13 11:54:06;;;;;;;2.40;2.20;;;18.70;72.70;;;;;;4921864;29;21252;-71
2021/05/13 11:56:37;;;;;;;3.63;2.43;;;18.70;73.30;;;;;;4931691;29;20437;-70
2021/05/13 11:59:04;;;;;;;4.20;2.40;;;18.70;73.10;;;;;;4938375;29;20460;-70
2021/05/13 12:01:36;;;;;;;4.53;2.53;;;18.80;73.40;;;;;;4938396;29;20456;-70
2021/05/13 12:04:08;;;;;;;2.47;1.90;;;18.80;71.70;;;;;;4938051;29;20522;-71
2021/05/13 12:07:01;;;;;;;5.10;2.03;;;18.70;72.50;;;;;;4933810;29;20426;-70
2021/05/13 12:09:29;;;;;;;3.77;1.80;;;18.80;73.00;;;;;;4919775;29;20435;-71
2021/05/13 12:11:55;;;;;;;2.30;2.10;;;18.70;71.60;;;;;;4929618;29;20418;-70
2021/05/13 12:14:24;;;;;;;2.50;2.00;;;18.70;71.80;;;;;;4937831;29;20923;-71
2021/05/13 12:17:00;;;;;;;2.90;2.57;;;18.70;71.70;;;;;;4936353;28;20482;-72
2021/05/13 12:19:27;;;;;;;2.73;1.90;;;18.90;70.90;;;;;;4919391;29;20951;-70
2021/05/13 12:21:58;;;;;;;5.10;2.45;;;18.90;70.60;;;;;;4917474;29;20475;-71
2021/05/13 12:24:31;;;;;;;2.77;2.10;;;19.00;70.90;;;;;;4918342;29;20237;-72
2021/05/13 12:26:57;;;;;;;2.25;1.90;;;19.10;69.40;;;;;;4920393;29;20514;-71
2021/05/13 12:29:24;;;;;;;1.90;1.80;;;19.00;67.80;;;;;;4933517;29;20268;-71
2021/05/13 12:31:50;;;;;;;2.87;2.03;;;19.00;68.70;;;;;;4937858;29;20279;-71
2021/05/13 12:34:35;;;;;;;1.80;1.70;;;19.00;68.40;;;;;;4952261;29;20426;-70
2021/05/13 12:37:03;;;;;;;5.03;2.40;;;19.10;67.40;;;;;;4919355;29;20530;-70
2021/05/13 12:39:30;;;;;;;2.50;2.17;;;19.00;67.20;;;;;;4919654;29;20565;-70
2021/05/13 12:41:57;;;;;;;3.57;2.00;;;18.90;67.30;;;;;;4918823;29;20414;-71
2021/05/13 12:44:33;;;;;;;2.53;1.90;;;18.90;67.70;;;;;;4918002;29;20426;-72
2021/05/13 12:47:00;;;;;;;2.70;2.40;;;18.90;67.80;;;;;;4918406;29;20915;-71
2021/05/13 12:49:29;;;;;;;3.73;1.80;;;19.10;68.90;;;;;;4918942;29;20446;-71
2021/05/13 12:52:08;;;;;;;2.87;2.20;;;19.20;66.90;;;;;;4917906;29;20415;-71
2021/05/13 12:54:36;;;;;;;2.50;1.80;;;19.30;66.20;;;;;;4918303;29;20435;-71
2021/05/13 12:57:18;;;;;;;2.43;1.87;;;19.40;66.10;;;;;;4918080;29;20411;-71
2021/05/13 12:59:48;;;;;;;1.97;1.87;;;19.50;65.80;;;;;;4918004;29;20813;-71
2021/05/13 13:02:25;;;;;;;3.33;2.20;;;19.50;65.00;;;;;;4921369;29;20422;-71